sensor_id;sensor_type;location;lat;lon;timestamp;P1;durP1;ratioP1;P2;durP2;ratioP2
55706;SDS011;41608;45.384;20.394;2022-12-04T00:00:12;8.93;;;4.93;;
55706;SDS011;41608;45.384;20.394;2022-12-04T00:02:39;9.10;;;4.88;;
55706;SDS011;41608;45.384;20.394;2022-12-04T00:05:05;7.47;;;4.93;;
55706;SDS011;41608;45.384;20.394;2022-12-04T00:07:32;8.38;;;5.97;;
55706;SDS011;41608;45.384;20.394;2022-12-04T00:09:58;9.15;;;5.63;;
55706;SDS011;41608;45.384;20.394;2022-12-04T00:12:24;9.13;;;5.78;;
55706;SDS011;41608;45.384;20.394;2022-12-04T00:14:50;6.20;;;4.13;;
55706;SDS011;41608;45.384;20.394;2022-12-04T00:17:16;7.50;;;5.20;;
55706;SDS011;41608;45.384;20.394;2022-12-04T00:19:42;9.57;;;5.68;;
55706;SDS011;41608;45.384;20.394;2022-12-04T00:22:08;7.68;;;5.40;;
55706;SDS011;41608;45.384;20.394;2022-12-04T00:24:34;5.78;;;4.25;;
55706;SDS011;41608;45.384;20.394;2022-12-04T00:27:00;7.72;;;4.43;;
55706;SDS011;41608;45.384;20.394;2022-12-04T00:29:27;6.53;;;4.07;;
55706;SDS011;41608;45.384;20.394;2022-12-04T00:31:53;7.13;;;4.50;;
55706;SDS011;41608;45.384;20.394;2022-12-04T00:34:19;8.35;;;5.43;;
55706;SDS011;41608;45.384;20.394;2022-12-04T00:36:46;7.35;;;3.80;;
55706;SDS011;41608;45.384;20.394;2022-12-04T00:39:13;6.90;;;5.05;;
55706;SDS011;41608;45.384;20.394;2022-12-04T00:41:39;8.73;;;4.68;;
55706;SDS011;41608;45.384;20.394;2022-12-04T00:44:05;7.32;;;5.00;;
55706;SDS011;41608;45.384;20.394;2022-12-04T00:46:31;8.05;;;4.70;;
55706;SDS011;41608;45.384;20.394;2022-12-04T00:48:57;11.00;;;5.60;;
55706;SDS011;41608;45.384;20.394;2022-12-04T00:51:26;6.78;;;5.55;;
55706;SDS011;41608;45.384;20.394;2022-12-04T00:53:53;7.05;;;5.68;;
55706;SDS011;41608;45.384;20.394;2022-12-04T00:56:20;6.22;;;4.03;;
55706;SDS011;41608;45.384;20.394;2022-12-04T00:58:46;8.73;;;4.53;;
55706;SDS011;41608;45.384;20.394;2022-12-04T01:01:14;8.20;;;4.80;;
55706;SDS011;41608;45.384;20.394;2022-12-04T01:03:41;7.15;;;5.63;;
55706;SDS011;41608;45.384;20.394;2022-12-04T01:06:15;7.00;;;4.00;;
55706;SDS011;41608;45.384;20.394;2022-12-04T01:08:41;7.63;;;5.32;;
55706;SDS011;41608;45.384;20.394;2022-12-04T01:11:07;7.30;;;4.45;;
55706;SDS011;41608;45.384;20.394;2022-12-04T01:13:33;5.88;;;4.07;;
55706;SDS011;41608;45.384;20.394;2022-12-04T01:15:59;6.22;;;4.25;;
55706;SDS011;41608;45.384;20.394;2022-12-04T01:18:25;6.63;;;4.13;;
55706;SDS011;41608;45.384;20.394;2022-12-04T01:20:52;6.30;;;4.30;;
55706;SDS011;41608;45.384;20.394;2022-12-04T01:23:18;6.55;;;4.55;;
55706;SDS011;41608;45.384;20.394;2022-12-04T01:25:54;5.63;;;3.67;;
55706;SDS011;41608;45.384;20.394;2022-12-04T01:28:21;7.18;;;4.97;;
55706;SDS011;41608;45.384;20.394;2022-12-04T01:30:57;6.50;;;4.05;;
55706;SDS011;41608;45.384;20.394;2022-12-04T01:33:24;6.03;;;4.43;;
55706;SDS011;41608;45.384;20.394;2022-12-04T01:35:53;6.25;;;4.07;;
55706;SDS011;41608;45.384;20.394;2022-12-04T01:38:20;7.30;;;3.92;;
55706;SDS011;41608;45.384;20.394;2022-12-04T01:40:46;9.23;;;4.18;;
55706;SDS011;41608;45.384;20.394;2022-12-04T01:43:12;7.28;;;4.57;;
55706;SDS011;41608;45.384;20.394;2022-12-04T01:45:40;5.30;;;4.32;;
55706;SDS011;41608;45.384;20.394;2022-12-04T01:48:12;7.05;;;4.72;;
55706;SDS011;41608;45.384;20.394;2022-12-04T01:50:40;7.80;;;4.88;;
55706;SDS011;41608;45.384;20.394;2022-12-04T01:53:08;4.90;;;3.15;;
55706;SDS011;41608;45.384;20.394;2022-12-04T01:55:34;5.90;;;3.30;;
55706;SDS011;41608;45.384;20.394;2022-12-04T01:58:00;7.00;;;3.03;;
55706;SDS011;41608;45.384;20.394;2022-12-04T02:00:26;4.88;;;3.53;;
55706;SDS011;41608;45.384;20.394;2022-12-04T02:02:56;6.35;;;4.28;;
55706;SDS011;41608;45.384;20.394;2022-12-04T02:05:23;5.05;;;3.35;;
55706;SDS011;41608;45.384;20.394;2022-12-04T02:07:50;6.07;;;3.08;;
55706;SDS011;41608;45.384;20.394;2022-12-04T02:10:16;4.40;;;2.80;;
55706;SDS011;41608;45.384;20.394;2022-12-04T02:15:16;5.97;;;3.78;;
55706;SDS011;41608;45.384;20.394;2022-12-04T02:20:21;6.15;;;4.07;;
55706;SDS011;41608;45.384;20.394;2022-12-04T02:25:28;6.28;;;4.03;;
55706;SDS011;41608;45.384;20.394;2022-12-04T02:30:22;7.43;;;4.55;;
55706;SDS011;41608;45.384;20.394;2022-12-04T02:32:51;22.10;;;5.40;;
55706;SDS011;41608;45.384;20.394;2022-12-04T02:36:05;6.57;;;4.43;;
55706;SDS011;41608;45.384;20.394;2022-12-04T02:43:17;7.38;;;4.95;;
55706;SDS011;41608;45.384;20.394;2022-12-04T02:45:46;6.88;;;4.40;;
55706;SDS011;41608;45.384;20.394;2022-12-04T02:48:17;7.63;;;4.20;;
55706;SDS011;41608;45.384;20.394;2022-12-04T02:50:44;5.30;;;3.40;;
55706;SDS011;41608;45.384;20.394;2022-12-04T02:53:12;6.20;;;3.72;;
55706;SDS011;41608;45.384;20.394;2022-12-04T02:55:44;8.45;;;4.90;;
55706;SDS011;41608;45.384;20.394;2022-12-04T02:58:13;6.97;;;4.20;;
55706;SDS011;41608;45.384;20.394;2022-12-04T03:00:41;7.03;;;4.00;;
55706;SDS011;41608;45.384;20.394;2022-12-04T03:03:10;4.78;;;3.30;;
55706;SDS011;41608;45.384;20.394;2022-12-04T03:05:39;6.07;;;3.20;;
55706;SDS011;41608;45.384;20.394;2022-12-04T03:08:07;5.78;;;3.20;;
55706;SDS011;41608;45.384;20.394;2022-12-04T03:10:37;7.68;;;4.07;;
55706;SDS011;41608;45.384;20.394;2022-12-04T03:13:06;5.13;;;3.83;;
55706;SDS011;41608;45.384;20.394;2022-12-04T03:15:38;5.10;;;3.53;;
55706;SDS011;41608;45.384;20.394;2022-12-04T03:18:11;4.90;;;3.15;;
55706;SDS011;41608;45.384;20.394;2022-12-04T03:20:38;5.65;;;3.95;;
55706;SDS011;41608;45.384;20.394;2022-12-04T03:23:08;5.82;;;4.05;;
55706;SDS011;41608;45.384;20.394;2022-12-04T03:25:37;4.55;;;3.30;;
55706;SDS011;41608;45.384;20.394;2022-12-04T03:28:07;4.45;;;3.08;;
55706;SDS011;41608;45.384;20.394;2022-12-04T03:30:38;8.75;;;4.00;;
55706;SDS011;41608;45.384;20.394;2022-12-04T03:33:14;6.47;;;3.92;;
55706;SDS011;41608;45.384;20.394;2022-12-04T03:35:44;5.65;;;3.97;;
55706;SDS011;41608;45.384;20.394;2022-12-04T03:40:58;7.22;;;4.50;;
55706;SDS011;41608;45.384;20.394;2022-12-04T03:43:38;5.07;;;2.92;;
55706;SDS011;41608;45.384;20.394;2022-12-04T03:46:07;6.10;;;3.35;;
55706;SDS011;41608;45.384;20.394;2022-12-04T03:48:40;5.97;;;3.75;;
55706;SDS011;41608;45.384;20.394;2022-12-04T03:54:01;3.78;;;2.50;;
55706;SDS011;41608;45.384;20.394;2022-12-04T03:56:26;5.68;;;3.17;;
55706;SDS011;41608;45.384;20.394;2022-12-04T03:58:55;5.13;;;2.95;;
55706;SDS011;41608;45.384;20.394;2022-12-04T04:01:22;4.93;;;3.47;;
55706;SDS011;41608;45.384;20.394;2022-12-04T04:03:51;5.18;;;3.10;;
55706;SDS011;41608;45.384;20.394;2022-12-04T04:06:24;4.00;;;2.38;;
55706;SDS011;41608;45.384;20.394;2022-12-04T04:08:53;3.40;;;2.25;;
55706;SDS011;41608;45.384;20.394;2022-12-04T04:11:39;4.15;;;2.40;;
55706;SDS011;41608;45.384;20.394;2022-12-04T04:14:07;3.72;;;2.72;;
55706;SDS011;41608;45.384;20.394;2022-12-04T04:16:59;3.60;;;2.42;;
55706;SDS011;41608;45.384;20.394;2022-12-04T04:19:46;4.50;;;2.45;;
55706;SDS011;41608;45.384;20.394;2022-12-04T04:22:33;5.78;;;3.70;;
55706;SDS011;41608;45.384;20.394;2022-12-04T04:25:19;2.67;;;2.15;;
55706;SDS011;41608;45.384;20.394;2022-12-04T04:27:52;3.60;;;2.75;;
55706;SDS011;41608;45.384;20.394;2022-12-04T04:30:18;3.45;;;2.42;;
55706;SDS011;41608;45.384;20.394;2022-12-04T04:40:44;3.40;;;2.03;;
55706;SDS011;41608;45.384;20.394;2022-12-04T04:43:16;3.47;;;2.25;;
55706;SDS011;41608;45.384;20.394;2022-12-04T04:45:47;3.33;;;2.20;;
55706;SDS011;41608;45.384;20.394;2022-12-04T04:48:31;3.38;;;2.70;;
55706;SDS011;41608;45.384;20.394;2022-12-04T04:50:59;7.05;;;3.60;;
55706;SDS011;41608;45.384;20.394;2022-12-04T04:53:34;3.55;;;2.40;;
55706;SDS011;41608;45.384;20.394;2022-12-04T04:56:02;5.13;;;3.10;;
55706;SDS011;41608;45.384;20.394;2022-12-04T04:58:29;4.57;;;2.50;;
55706;SDS011;41608;45.384;20.394;2022-12-04T05:00:56;3.28;;;2.20;;
55706;SDS011;41608;45.384;20.394;2022-12-04T05:03:23;4.57;;;2.58;;
55706;SDS011;41608;45.384;20.394;2022-12-04T05:05:49;5.13;;;2.67;;
55706;SDS011;41608;45.384;20.394;2022-12-04T05:08:15;5.07;;;3.05;;
55706;SDS011;41608;45.384;20.394;2022-12-04T05:10:41;4.18;;;2.70;;
55706;SDS011;41608;45.384;20.394;2022-12-04T05:13:08;5.30;;;3.20;;
55706;SDS011;41608;45.384;20.394;2022-12-04T05:15:34;5.32;;;4.15;;
55706;SDS011;41608;45.384;20.394;2022-12-04T05:18:00;4.63;;;2.55;;
55706;SDS011;41608;45.384;20.394;2022-12-04T05:20:26;3.83;;;2.20;;
55706;SDS011;41608;45.384;20.394;2022-12-04T05:22:52;4.13;;;2.97;;
55706;SDS011;41608;45.384;20.394;2022-12-04T05:25:18;4.38;;;2.55;;
55706;SDS011;41608;45.384;20.394;2022-12-04T05:27:44;3.40;;;2.33;;
55706;SDS011;41608;45.384;20.394;2022-12-04T05:30:10;4.97;;;3.08;;
55706;SDS011;41608;45.384;20.394;2022-12-04T05:32:37;3.90;;;2.50;;
55706;SDS011;41608;45.384;20.394;2022-12-04T05:35:03;6.53;;;2.78;;
55706;SDS011;41608;45.384;20.394;2022-12-04T05:37:29;5.15;;;2.78;;
55706;SDS011;41608;45.384;20.394;2022-12-04T05:39:55;4.63;;;2.95;;
55706;SDS011;41608;45.384;20.394;2022-12-04T05:42:21;5.22;;;4.13;;
55706;SDS011;41608;45.384;20.394;2022-12-04T05:44:48;5.25;;;3.25;;
55706;SDS011;41608;45.384;20.394;2022-12-04T05:47:14;5.50;;;3.80;;
55706;SDS011;41608;45.384;20.394;2022-12-04T05:49:41;6.60;;;3.67;;
55706;SDS011;41608;45.384;20.394;2022-12-04T05:52:07;6.28;;;4.28;;
55706;SDS011;41608;45.384;20.394;2022-12-04T05:54:34;5.28;;;3.72;;
55706;SDS011;41608;45.384;20.394;2022-12-04T05:57:00;5.35;;;3.53;;
55706;SDS011;41608;45.384;20.394;2022-12-04T05:59:26;3.80;;;2.55;;
55706;SDS011;41608;45.384;20.394;2022-12-04T06:01:52;3.95;;;2.30;;
55706;SDS011;41608;45.384;20.394;2022-12-04T06:04:19;4.93;;;2.88;;
55706;SDS011;41608;45.384;20.394;2022-12-04T06:06:45;5.15;;;2.88;;
55706;SDS011;41608;45.384;20.394;2022-12-04T06:09:11;3.58;;;2.53;;
55706;SDS011;41608;45.384;20.394;2022-12-04T06:11:38;4.57;;;3.15;;
55706;SDS011;41608;45.384;20.394;2022-12-04T06:14:05;4.05;;;2.88;;
55706;SDS011;41608;45.384;20.394;2022-12-04T06:16:38;6.07;;;3.30;;
55706;SDS011;41608;45.384;20.394;2022-12-04T06:19:06;5.53;;;3.50;;
55706;SDS011;41608;45.384;20.394;2022-12-04T06:21:34;4.65;;;3.03;;
55706;SDS011;41608;45.384;20.394;2022-12-04T06:24:01;5.20;;;2.97;;
55706;SDS011;41608;45.384;20.394;2022-12-04T06:26:27;4.30;;;2.70;;
55706;SDS011;41608;45.384;20.394;2022-12-04T06:28:53;4.03;;;2.45;;
55706;SDS011;41608;45.384;20.394;2022-12-04T06:31:21;5.35;;;3.20;;
55706;SDS011;41608;45.384;20.394;2022-12-04T06:33:47;5.53;;;2.90;;
55706;SDS011;41608;45.384;20.394;2022-12-04T06:36:14;3.10;;;2.25;;
55706;SDS011;41608;45.384;20.394;2022-12-04T06:38:41;4.60;;;2.67;;
55706;SDS011;41608;45.384;20.394;2022-12-04T06:41:08;5.18;;;2.72;;
55706;SDS011;41608;45.384;20.394;2022-12-04T06:43:34;6.53;;;3.67;;
55706;SDS011;41608;45.384;20.394;2022-12-04T06:46:01;5.47;;;3.47;;
55706;SDS011;41608;45.384;20.394;2022-12-04T06:48:28;6.85;;;2.88;;
55706;SDS011;41608;45.384;20.394;2022-12-04T06:50:59;6.72;;;4.47;;
55706;SDS011;41608;45.384;20.394;2022-12-04T06:53:26;5.75;;;3.78;;
55706;SDS011;41608;45.384;20.394;2022-12-04T06:55:54;6.25;;;4.32;;
55706;SDS011;41608;45.384;20.394;2022-12-04T06:58:21;7.22;;;4.18;;
55706;SDS011;41608;45.384;20.394;2022-12-04T07:00:47;6.07;;;3.55;;
55706;SDS011;41608;45.384;20.394;2022-12-04T07:03:13;4.25;;;3.13;;
55706;SDS011;41608;45.384;20.394;2022-12-04T07:05:39;4.57;;;2.92;;
55706;SDS011;41608;45.384;20.394;2022-12-04T07:08:05;7.07;;;3.83;;
55706;SDS011;41608;45.384;20.394;2022-12-04T07:10:31;5.63;;;3.88;;
55706;SDS011;41608;45.384;20.394;2022-12-04T07:12:57;6.28;;;3.47;;
55706;SDS011;41608;45.384;20.394;2022-12-04T07:15:23;8.73;;;3.50;;
55706;SDS011;41608;45.384;20.394;2022-12-04T07:17:49;7.10;;;3.38;;
55706;SDS011;41608;45.384;20.394;2022-12-04T07:20:15;6.30;;;3.30;;
55706;SDS011;41608;45.384;20.394;2022-12-04T07:22:41;4.80;;;3.78;;
55706;SDS011;41608;45.384;20.394;2022-12-04T07:25:07;7.78;;;3.42;;
55706;SDS011;41608;45.384;20.394;2022-12-04T07:27:33;5.78;;;3.55;;
55706;SDS011;41608;45.384;20.394;2022-12-04T07:29:59;6.53;;;3.78;;
55706;SDS011;41608;45.384;20.394;2022-12-04T07:32:25;7.97;;;3.60;;
55706;SDS011;41608;45.384;20.394;2022-12-04T07:34:51;4.63;;;2.95;;
55706;SDS011;41608;45.384;20.394;2022-12-04T07:37:17;6.07;;;3.50;;
55706;SDS011;41608;45.384;20.394;2022-12-04T07:39:43;5.75;;;4.63;;
55706;SDS011;41608;45.384;20.394;2022-12-04T07:42:09;4.55;;;3.28;;
55706;SDS011;41608;45.384;20.394;2022-12-04T07:44:35;6.13;;;4.55;;
55706;SDS011;41608;45.384;20.394;2022-12-04T07:47:02;7.13;;;3.97;;
55706;SDS011;41608;45.384;20.394;2022-12-04T07:49:28;9.73;;;4.40;;
55706;SDS011;41608;45.384;20.394;2022-12-04T07:51:54;7.03;;;3.88;;
55706;SDS011;41608;45.384;20.394;2022-12-04T07:54:20;10.40;;;4.90;;
55706;SDS011;41608;45.384;20.394;2022-12-04T07:56:46;9.52;;;4.55;;
55706;SDS011;41608;45.384;20.394;2022-12-04T07:59:12;10.40;;;6.15;;
55706;SDS011;41608;45.384;20.394;2022-12-04T08:01:38;7.72;;;4.97;;
55706;SDS011;41608;45.384;20.394;2022-12-04T08:04:04;11.30;;;7.18;;
55706;SDS011;41608;45.384;20.394;2022-12-04T08:06:31;9.25;;;5.32;;
55706;SDS011;41608;45.384;20.394;2022-12-04T08:08:58;7.78;;;5.70;;
55706;SDS011;41608;45.384;20.394;2022-12-04T08:11:25;8.20;;;5.55;;
55706;SDS011;41608;45.384;20.394;2022-12-04T08:13:58;8.43;;;4.60;;
55706;SDS011;41608;45.384;20.394;2022-12-04T08:16:25;8.88;;;5.10;;
55706;SDS011;41608;45.384;20.394;2022-12-04T08:18:51;10.55;;;5.53;;
55706;SDS011;41608;45.384;20.394;2022-12-04T08:21:19;10.05;;;4.78;;
55706;SDS011;41608;45.384;20.394;2022-12-04T08:23:46;6.90;;;4.93;;
55706;SDS011;41608;45.384;20.394;2022-12-04T08:26:12;9.25;;;5.10;;
55706;SDS011;41608;45.384;20.394;2022-12-04T08:28:39;8.82;;;4.47;;
55706;SDS011;41608;45.384;20.394;2022-12-04T08:31:06;9.95;;;5.28;;
55706;SDS011;41608;45.384;20.394;2022-12-04T08:33:33;8.05;;;5.88;;
55706;SDS011;41608;45.384;20.394;2022-12-04T08:35:59;9.55;;;5.40;;
55706;SDS011;41608;45.384;20.394;2022-12-04T08:38:25;11.52;;;5.60;;
55706;SDS011;41608;45.384;20.394;2022-12-04T08:40:51;10.23;;;5.97;;
55706;SDS011;41608;45.384;20.394;2022-12-04T08:43:18;8.48;;;4.43;;
55706;SDS011;41608;45.384;20.394;2022-12-04T08:45:44;5.82;;;4.30;;
55706;SDS011;41608;45.384;20.394;2022-12-04T08:48:19;7.55;;;4.05;;
55706;SDS011;41608;45.384;20.394;2022-12-04T08:50:45;7.75;;;4.95;;
55706;SDS011;41608;45.384;20.394;2022-12-04T08:53:11;5.35;;;3.72;;
55706;SDS011;41608;45.384;20.394;2022-12-04T08:55:37;7.22;;;4.65;;
55706;SDS011;41608;45.384;20.394;2022-12-04T08:58:03;9.10;;;4.57;;
55706;SDS011;41608;45.384;20.394;2022-12-04T09:00:29;6.55;;;4.07;;
55706;SDS011;41608;45.384;20.394;2022-12-04T09:02:56;6.38;;;3.80;;
55706;SDS011;41608;45.384;20.394;2022-12-04T09:05:22;9.57;;;4.20;;
55706;SDS011;41608;45.384;20.394;2022-12-04T09:07:48;6.03;;;4.13;;
55706;SDS011;41608;45.384;20.394;2022-12-04T09:10:14;8.02;;;4.15;;
55706;SDS011;41608;45.384;20.394;2022-12-04T09:12:40;4.70;;;3.58;;
55706;SDS011;41608;45.384;20.394;2022-12-04T09:15:06;6.50;;;4.22;;
55706;SDS011;41608;45.384;20.394;2022-12-04T09:17:33;10.07;;;4.43;;
55706;SDS011;41608;45.384;20.394;2022-12-04T09:20:00;8.48;;;3.88;;
55706;SDS011;41608;45.384;20.394;2022-12-04T09:22:26;5.65;;;3.80;;
55706;SDS011;41608;45.384;20.394;2022-12-04T09:24:52;9.02;;;4.63;;
55706;SDS011;41608;45.384;20.394;2022-12-04T09:27:18;5.15;;;3.53;;
55706;SDS011;41608;45.384;20.394;2022-12-04T09:29:44;4.93;;;3.20;;
55706;SDS011;41608;45.384;20.394;2022-12-04T09:32:10;4.53;;;2.88;;
55706;SDS011;41608;45.384;20.394;2022-12-04T09:34:36;8.15;;;4.05;;
55706;SDS011;41608;45.384;20.394;2022-12-04T09:37:02;9.48;;;3.85;;
55706;SDS011;41608;45.384;20.394;2022-12-04T09:39:28;6.05;;;3.58;;
55706;SDS011;41608;45.384;20.394;2022-12-04T09:42:17;6.80;;;4.60;;
55706;SDS011;41608;45.384;20.394;2022-12-04T09:44:47;6.03;;;4.07;;
55706;SDS011;41608;45.384;20.394;2022-12-04T09:47:20;12.55;;;3.70;;
55706;SDS011;41608;45.384;20.394;2022-12-04T09:50:10;6.55;;;3.78;;
55706;SDS011;41608;45.384;20.394;2022-12-04T09:52:51;6.43;;;3.65;;
55706;SDS011;41608;45.384;20.394;2022-12-04T09:55:23;6.40;;;3.92;;
55706;SDS011;41608;45.384;20.394;2022-12-04T09:57:51;6.38;;;4.00;;
55706;SDS011;41608;45.384;20.394;2022-12-04T10:00:19;7.03;;;4.00;;
55706;SDS011;41608;45.384;20.394;2022-12-04T10:02:50;11.18;;;6.53;;
55706;SDS011;41608;45.384;20.394;2022-12-04T10:08:07;9.27;;;6.75;;
55706;SDS011;41608;45.384;20.394;2022-12-04T10:15:48;9.65;;;4.13;;
55706;SDS011;41608;45.384;20.394;2022-12-04T10:26:01;6.65;;;4.68;;
55706;SDS011;41608;45.384;20.394;2022-12-04T10:28:36;8.40;;;4.70;;
55706;SDS011;41608;45.384;20.394;2022-12-04T10:31:05;7.28;;;4.43;;
55706;SDS011;41608;45.384;20.394;2022-12-04T10:33:40;10.93;;;5.35;;
55706;SDS011;41608;45.384;20.394;2022-12-04T10:36:09;15.23;;;6.28;;
55706;SDS011;41608;45.384;20.394;2022-12-04T10:38:39;7.55;;;4.57;;
55706;SDS011;41608;45.384;20.394;2022-12-04T10:43:53;5.95;;;4.95;;
55706;SDS011;41608;45.384;20.394;2022-12-04T10:48:53;9.15;;;5.75;;
55706;SDS011;41608;45.384;20.394;2022-12-04T10:51:20;7.80;;;4.40;;
55706;SDS011;41608;45.384;20.394;2022-12-04T10:53:47;9.13;;;4.88;;
55706;SDS011;41608;45.384;20.394;2022-12-04T10:56:15;8.18;;;5.07;;
55706;SDS011;41608;45.384;20.394;2022-12-04T10:58:42;5.60;;;2.83;;
55706;SDS011;41608;45.384;20.394;2022-12-04T11:01:11;5.65;;;3.45;;
55706;SDS011;41608;45.384;20.394;2022-12-04T11:03:39;6.00;;;3.78;;
55706;SDS011;41608;45.384;20.394;2022-12-04T11:06:08;8.70;;;5.35;;
55706;SDS011;41608;45.384;20.394;2022-12-04T11:08:36;7.15;;;3.83;;
55706;SDS011;41608;45.384;20.394;2022-12-04T11:11:07;9.32;;;4.47;;
55706;SDS011;41608;45.384;20.394;2022-12-04T11:13:35;6.28;;;4.20;;
55706;SDS011;41608;45.384;20.394;2022-12-04T11:16:01;7.05;;;4.47;;
55706;SDS011;41608;45.384;20.394;2022-12-04T11:18:31;7.07;;;4.95;;
55706;SDS011;41608;45.384;20.394;2022-12-04T11:21:12;5.75;;;4.15;;
55706;SDS011;41608;45.384;20.394;2022-12-04T11:23:43;7.97;;;5.65;;
55706;SDS011;41608;45.384;20.394;2022-12-04T11:26:10;7.55;;;4.38;;
55706;SDS011;41608;45.384;20.394;2022-12-04T11:28:37;9.68;;;4.57;;
55706;SDS011;41608;45.384;20.394;2022-12-04T11:31:04;8.48;;;4.72;;
55706;SDS011;41608;45.384;20.394;2022-12-04T11:33:36;6.70;;;5.28;;
55706;SDS011;41608;45.384;20.394;2022-12-04T11:36:13;7.60;;;4.28;;
55706;SDS011;41608;45.384;20.394;2022-12-04T11:38:43;8.15;;;5.93;;
55706;SDS011;41608;45.384;20.394;2022-12-04T11:41:20;11.38;;;7.47;;
55706;SDS011;41608;45.384;20.394;2022-12-04T11:43:48;8.55;;;5.47;;
55706;SDS011;41608;45.384;20.394;2022-12-04T11:46:15;9.93;;;6.45;;
55706;SDS011;41608;45.384;20.394;2022-12-04T11:48:44;7.32;;;4.25;;
55706;SDS011;41608;45.384;20.394;2022-12-04T11:56:42;12.13;;;4.57;;
55706;SDS011;41608;45.384;20.394;2022-12-04T12:01:45;7.53;;;3.85;;
55706;SDS011;41608;45.384;20.394;2022-12-04T12:04:21;6.35;;;4.07;;
55706;SDS011;41608;45.384;20.394;2022-12-04T12:12:05;6.13;;;3.65;;
55706;SDS011;41608;45.384;20.394;2022-12-04T12:30:24;7.43;;;4.00;;
55706;SDS011;41608;45.384;20.394;2022-12-04T12:33:06;12.32;;;4.60;;
55706;SDS011;41608;45.384;20.394;2022-12-04T12:35:37;5.88;;;4.22;;
55706;SDS011;41608;45.384;20.394;2022-12-04T12:38:05;5.28;;;3.83;;
55706;SDS011;41608;45.384;20.394;2022-12-04T12:40:36;7.32;;;5.18;;
55706;SDS011;41608;45.384;20.394;2022-12-04T12:43:06;7.70;;;4.82;;
55706;SDS011;41608;45.384;20.394;2022-12-04T12:45:43;6.38;;;4.32;;
55706;SDS011;41608;45.384;20.394;2022-12-04T12:48:17;5.97;;;3.72;;
55706;SDS011;41608;45.384;20.394;2022-12-04T12:51:11;5.82;;;4.05;;
55706;SDS011;41608;45.384;20.394;2022-12-04T12:53:33;8.88;;;4.93;;
55706;SDS011;41608;45.384;20.394;2022-12-04T12:56:01;7.82;;;4.82;;
55706;SDS011;41608;45.384;20.394;2022-12-04T12:58:31;5.18;;;3.28;;
55706;SDS011;41608;45.384;20.394;2022-12-04T13:01:03;8.13;;;4.80;;
55706;SDS011;41608;45.384;20.394;2022-12-04T13:06:02;11.65;;;4.85;;
55706;SDS011;41608;45.384;20.394;2022-12-04T13:08:53;6.38;;;4.70;;
55706;SDS011;41608;45.384;20.394;2022-12-04T13:11:21;7.25;;;4.90;;
55706;SDS011;41608;45.384;20.394;2022-12-04T13:16:26;8.65;;;4.55;;
55706;SDS011;41608;45.384;20.394;2022-12-04T13:19:06;6.72;;;4.55;;
55706;SDS011;41608;45.384;20.394;2022-12-04T13:21:35;8.27;;;4.70;;
55706;SDS011;41608;45.384;20.394;2022-12-04T13:29:16;6.32;;;3.67;;
55706;SDS011;41608;45.384;20.394;2022-12-04T13:31:57;5.38;;;3.60;;
55706;SDS011;41608;45.384;20.394;2022-12-04T13:36:56;10.70;;;5.55;;
55706;SDS011;41608;45.384;20.394;2022-12-04T13:41:57;7.25;;;4.63;;
55706;SDS011;41608;45.384;20.394;2022-12-04T13:44:25;10.85;;;5.90;;
55706;SDS011;41608;45.384;20.394;2022-12-04T13:51:50;9.95;;;5.55;;
55706;SDS011;41608;45.384;20.394;2022-12-04T13:56:44;11.18;;;4.75;;
55706;SDS011;41608;45.384;20.394;2022-12-04T14:01:59;7.25;;;4.47;;
55706;SDS011;41608;45.384;20.394;2022-12-04T14:04:44;8.85;;;5.22;;
55706;SDS011;41608;45.384;20.394;2022-12-04T14:07:55;8.27;;;4.20;;
55706;SDS011;41608;45.384;20.394;2022-12-04T14:10:04;5.78;;;4.10;;
55706;SDS011;41608;45.384;20.394;2022-12-04T14:12:32;7.60;;;5.43;;
55706;SDS011;41608;45.384;20.394;2022-12-04T14:15:42;6.88;;;4.00;;
55706;SDS011;41608;45.384;20.394;2022-12-04T14:20:41;6.93;;;4.20;;
55706;SDS011;41608;45.384;20.394;2022-12-04T14:25:42;5.10;;;3.50;;
55706;SDS011;41608;45.384;20.394;2022-12-04T14:28:35;6.88;;;3.88;;
55706;SDS011;41608;45.384;20.394;2022-12-04T14:31:13;11.63;;;5.68;;
55706;SDS011;41608;45.384;20.394;2022-12-04T14:33:43;7.03;;;4.45;;
55706;SDS011;41608;45.384;20.394;2022-12-04T14:36:15;10.10;;;5.50;;
55706;SDS011;41608;45.384;20.394;2022-12-04T14:38:46;6.57;;;4.60;;
55706;SDS011;41608;45.384;20.394;2022-12-04T14:41:13;5.88;;;4.60;;
55706;SDS011;41608;45.384;20.394;2022-12-04T14:43:47;8.75;;;5.38;;
55706;SDS011;41608;45.384;20.394;2022-12-04T14:46:16;9.25;;;3.92;;
55706;SDS011;41608;45.384;20.394;2022-12-04T14:51:11;7.25;;;4.80;;
55706;SDS011;41608;45.384;20.394;2022-12-04T14:58:40;5.50;;;4.15;;
55706;SDS011;41608;45.384;20.394;2022-12-04T15:01:20;6.93;;;4.30;;
55706;SDS011;41608;45.384;20.394;2022-12-04T15:03:47;10.02;;;7.05;;
55706;SDS011;41608;45.384;20.394;2022-12-04T15:08:47;8.85;;;5.20;;
55706;SDS011;41608;45.384;20.394;2022-12-04T15:11:27;12.60;;;7.35;;
55706;SDS011;41608;45.384;20.394;2022-12-04T15:14:12;8.70;;;5.32;;
55706;SDS011;41608;45.384;20.394;2022-12-04T15:16:39;8.93;;;6.35;;
55706;SDS011;41608;45.384;20.394;2022-12-04T15:19:12;11.43;;;7.45;;
55706;SDS011;41608;45.384;20.394;2022-12-04T15:21:40;8.00;;;6.03;;
55706;SDS011;41608;45.384;20.394;2022-12-04T15:24:07;7.50;;;6.07;;
55706;SDS011;41608;45.384;20.394;2022-12-04T15:26:33;9.35;;;6.63;;
55706;SDS011;41608;45.384;20.394;2022-12-04T15:29:00;8.82;;;5.40;;
55706;SDS011;41608;45.384;20.394;2022-12-04T15:31:29;6.90;;;4.97;;
55706;SDS011;41608;45.384;20.394;2022-12-04T15:34:00;8.23;;;4.20;;
55706;SDS011;41608;45.384;20.394;2022-12-04T15:38:53;6.10;;;4.30;;
55706;SDS011;41608;45.384;20.394;2022-12-04T15:50:07;9.30;;;5.32;;
55706;SDS011;41608;45.384;20.394;2022-12-04T15:52:33;7.35;;;4.57;;
55706;SDS011;41608;45.384;20.394;2022-12-04T15:55:00;7.10;;;4.47;;
55706;SDS011;41608;45.384;20.394;2022-12-04T15:59:55;10.52;;;6.20;;
55706;SDS011;41608;45.384;20.394;2022-12-04T16:02:32;9.70;;;4.90;;
55706;SDS011;41608;45.384;20.394;2022-12-04T16:05:09;7.28;;;4.93;;
55706;SDS011;41608;45.384;20.394;2022-12-04T16:07:35;10.43;;;5.85;;
55706;SDS011;41608;45.384;20.394;2022-12-04T16:10:53;6.72;;;5.10;;
55706;SDS011;41608;45.384;20.394;2022-12-04T16:13:04;6.22;;;4.85;;
55706;SDS011;41608;45.384;20.394;2022-12-04T16:15:33;6.70;;;3.92;;
55706;SDS011;41608;45.384;20.394;2022-12-04T16:18:01;7.75;;;4.63;;
55706;SDS011;41608;45.384;20.394;2022-12-04T16:20:29;8.43;;;4.10;;
55706;SDS011;41608;45.384;20.394;2022-12-04T16:22:55;7.57;;;4.63;;
55706;SDS011;41608;45.384;20.394;2022-12-04T16:25:21;7.57;;;4.78;;
55706;SDS011;41608;45.384;20.394;2022-12-04T16:27:47;9.02;;;6.47;;
55706;SDS011;41608;45.384;20.394;2022-12-04T16:30:14;8.05;;;5.78;;
55706;SDS011;41608;45.384;20.394;2022-12-04T16:32:40;7.38;;;5.18;;
55706;SDS011;41608;45.384;20.394;2022-12-04T16:35:16;8.15;;;4.60;;
55706;SDS011;41608;45.384;20.394;2022-12-04T16:40:09;7.32;;;4.97;;
55706;SDS011;41608;45.384;20.394;2022-12-04T16:42:36;6.53;;;4.53;;
55706;SDS011;41608;45.384;20.394;2022-12-04T16:45:02;6.78;;;4.47;;
55706;SDS011;41608;45.384;20.394;2022-12-04T16:47:28;12.65;;;5.80;;
55706;SDS011;41608;45.384;20.394;2022-12-04T16:49:54;6.28;;;4.05;;
55706;SDS011;41608;45.384;20.394;2022-12-04T16:52:20;9.27;;;5.00;;
55706;SDS011;41608;45.384;20.394;2022-12-04T16:54:46;11.68;;;5.20;;
55706;SDS011;41608;45.384;20.394;2022-12-04T16:57:12;9.57;;;5.25;;
55706;SDS011;41608;45.384;20.394;2022-12-04T16:59:38;7.38;;;5.35;;